sensor_id;sensor_type;location;lat;lon;timestamp;P1;durP1;ratioP1;P2;durP2;ratioP2
33347;SDS011;19707;51.158;17.124;2022-11-20T00:02:01;91.47;;;42.38;;
33347;SDS011;19707;51.158;17.124;2022-11-20T00:05:04;83.67;;;39.80;;
33347;SDS011;19707;51.158;17.124;2022-11-20T00:08:07;85.28;;;39.30;;
33347;SDS011;19707;51.158;17.124;2022-11-20T00:11:09;84.10;;;39.13;;
33347;SDS011;19707;51.158;17.124;2022-11-20T00:14:15;88.45;;;41.23;;
33347;SDS011;19707;51.158;17.124;2022-11-20T00:17:17;84.10;;;39.67;;
33347;SDS011;19707;51.158;17.124;2022-11-20T00:20:18;84.75;;;39.00;;
33347;SDS011;19707;51.158;17.124;2022-11-20T00:23:20;85.05;;;40.95;;
33347;SDS011;19707;51.158;17.124;2022-11-20T00:26:24;98.60;;;42.70;;
33347;SDS011;19707;51.158;17.124;2022-11-20T00:29:27;93.37;;;43.95;;
33347;SDS011;19707;51.158;17.124;2022-11-20T00:32:29;89.37;;;41.80;;
33347;SDS011;19707;51.158;17.124;2022-11-20T00:35:31;86.37;;;41.13;;
33347;SDS011;19707;51.158;17.124;2022-11-20T00:38:32;104.80;;;47.33;;
33347;SDS011;19707;51.158;17.124;2022-11-20T00:41:34;123.15;;;51.33;;
33347;SDS011;19707;51.158;17.124;2022-11-20T00:44:36;129.00;;;52.60;;
33347;SDS011;19707;51.158;17.124;2022-11-20T00:47:38;128.70;;;56.02;;
33347;SDS011;19707;51.158;17.124;2022-11-20T00:50:40;123.72;;;52.75;;
33347;SDS011;19707;51.158;17.124;2022-11-20T00:53:42;125.20;;;54.00;;
33347;SDS011;19707;51.158;17.124;2022-11-20T00:56:44;118.80;;;52.35;;
33347;SDS011;19707;51.158;17.124;2022-11-20T00:59:46;121.97;;;50.03;;
33347;SDS011;19707;51.158;17.124;2022-11-20T01:02:49;125.67;;;52.35;;
33347;SDS011;19707;51.158;17.124;2022-11-20T01:05:51;130.70;;;53.52;;
33347;SDS011;19707;51.158;17.124;2022-11-20T01:08:53;119.55;;;52.62;;
33347;SDS011;19707;51.158;17.124;2022-11-20T01:14:59;114.80;;;50.43;;
33347;SDS011;19707;51.158;17.124;2022-11-20T01:18:01;115.28;;;51.80;;
33347;SDS011;19707;51.158;17.124;2022-11-20T01:21:07;115.88;;;53.23;;
33347;SDS011;19707;51.158;17.124;2022-11-20T01:24:13;120.13;;;50.33;;
33347;SDS011;19707;51.158;17.124;2022-11-20T01:27:17;110.00;;;50.25;;
33347;SDS011;19707;51.158;17.124;2022-11-20T01:30:19;118.72;;;49.67;;
33347;SDS011;19707;51.158;17.124;2022-11-20T01:33:20;116.42;;;50.83;;
33347;SDS011;19707;51.158;17.124;2022-11-20T01:36:23;111.03;;;51.25;;
33347;SDS011;19707;51.158;17.124;2022-11-20T01:39:26;107.32;;;49.50;;
33347;SDS011;19707;51.158;17.124;2022-11-20T01:42:28;105.55;;;48.92;;
33347;SDS011;19707;51.158;17.124;2022-11-20T01:49:21;111.05;;;52.25;;
33347;SDS011;19707;51.158;17.124;2022-11-20T01:52:34;112.55;;;49.45;;
33347;SDS011;19707;51.158;17.124;2022-11-20T01:55:59;114.22;;;49.27;;
33347;SDS011;19707;51.158;17.124;2022-11-20T01:59:02;100.85;;;48.58;;
33347;SDS011;19707;51.158;17.124;2022-11-20T02:02:06;112.60;;;51.92;;
33347;SDS011;19707;51.158;17.124;2022-11-20T02:05:19;112.00;;;49.67;;
33347;SDS011;19707;51.158;17.124;2022-11-20T02:08:29;101.27;;;48.40;;
33347;SDS011;19707;51.158;17.124;2022-11-20T02:11:32;111.92;;;51.20;;
33347;SDS011;19707;51.158;17.124;2022-11-20T02:14:33;113.75;;;47.60;;
33347;SDS011;19707;51.158;17.124;2022-11-20T02:17:35;105.60;;;46.88;;
33347;SDS011;19707;51.158;17.124;2022-11-20T02:20:37;109.92;;;49.42;;
33347;SDS011;19707;51.158;17.124;2022-11-20T02:27:11;108.80;;;47.43;;
33347;SDS011;19707;51.158;17.124;2022-11-20T02:30:14;77.27;;;37.08;;
33347;SDS011;19707;51.158;17.124;2022-11-20T02:33:16;110.20;;;49.50;;
33347;SDS011;19707;51.158;17.124;2022-11-20T02:36:18;106.22;;;47.03;;
33347;SDS011;19707;51.158;17.124;2022-11-20T02:39:19;101.97;;;44.95;;
33347;SDS011;19707;51.158;17.124;2022-11-20T02:42:21;102.12;;;47.10;;
33347;SDS011;19707;51.158;17.124;2022-11-20T02:45:24;105.15;;;49.23;;
33347;SDS011;19707;51.158;17.124;2022-11-20T02:48:25;100.45;;;46.63;;
33347;SDS011;19707;51.158;17.124;2022-11-20T02:51:27;99.17;;;42.78;;
33347;SDS011;19707;51.158;17.124;2022-11-20T02:54:29;104.23;;;47.17;;
33347;SDS011;19707;51.158;17.124;2022-11-20T02:57:31;97.78;;;44.70;;
33347;SDS011;19707;51.158;17.124;2022-11-20T03:00:33;111.03;;;46.35;;
33347;SDS011;19707;51.158;17.124;2022-11-20T03:03:36;108.78;;;48.60;;
33347;SDS011;19707;51.158;17.124;2022-11-20T03:06:37;102.75;;;46.05;;
33347;SDS011;19707;51.158;17.124;2022-11-20T03:09:39;100.45;;;45.48;;
33347;SDS011;19707;51.158;17.124;2022-11-20T03:12:40;102.53;;;44.85;;
33347;SDS011;19707;51.158;17.124;2022-11-20T03:15:42;100.20;;;44.18;;
33347;SDS011;19707;51.158;17.124;2022-11-20T03:18:44;100.12;;;43.83;;
33347;SDS011;19707;51.158;17.124;2022-11-20T03:21:45;100.72;;;44.98;;
33347;SDS011;19707;51.158;17.124;2022-11-20T03:24:47;93.22;;;44.18;;
33347;SDS011;19707;51.158;17.124;2022-11-20T03:27:51;97.40;;;44.75;;
33347;SDS011;19707;51.158;17.124;2022-11-20T03:30:53;100.40;;;45.03;;
33347;SDS011;19707;51.158;17.124;2022-11-20T03:33:55;98.40;;;44.00;;
33347;SDS011;19707;51.158;17.124;2022-11-20T03:36:58;95.67;;;42.20;;
33347;SDS011;19707;51.158;17.124;2022-11-20T03:40:00;105.80;;;47.83;;
33347;SDS011;19707;51.158;17.124;2022-11-20T03:43:02;106.35;;;45.88;;
33347;SDS011;19707;51.158;17.124;2022-11-20T03:46:05;104.38;;;46.73;;
33347;SDS011;19707;51.158;17.124;2022-11-20T03:49:08;108.27;;;47.90;;
33347;SDS011;19707;51.158;17.124;2022-11-20T03:52:10;109.78;;;49.48;;
33347;SDS011;19707;51.158;17.124;2022-11-20T03:55:13;123.28;;;53.30;;
33347;SDS011;19707;51.158;17.124;2022-11-20T03:58:15;111.42;;;52.03;;
33347;SDS011;19707;51.158;17.124;2022-11-20T04:01:18;113.50;;;49.35;;
33347;SDS011;19707;51.158;17.124;2022-11-20T04:04:23;110.37;;;49.42;;
33347;SDS011;19707;51.158;17.124;2022-11-20T04:07:25;104.65;;;48.80;;
33347;SDS011;19707;51.158;17.124;2022-11-20T04:10:27;114.47;;;50.70;;
33347;SDS011;19707;51.158;17.124;2022-11-20T04:13:28;118.35;;;53.00;;
33347;SDS011;19707;51.158;17.124;2022-11-20T04:16:31;109.90;;;53.00;;
33347;SDS011;19707;51.158;17.124;2022-11-20T04:19:35;125.78;;;55.52;;
33347;SDS011;19707;51.158;17.124;2022-11-20T04:22:37;129.90;;;53.15;;
33347;SDS011;19707;51.158;17.124;2022-11-20T04:25:39;115.62;;;50.23;;
33347;SDS011;19707;51.158;17.124;2022-11-20T04:28:41;112.95;;;51.68;;
33347;SDS011;19707;51.158;17.124;2022-11-20T04:31:43;116.90;;;53.60;;
33347;SDS011;19707;51.158;17.124;2022-11-20T04:34:44;115.15;;;51.08;;
33347;SDS011;19707;51.158;17.124;2022-11-20T04:37:46;108.20;;;50.45;;
33347;SDS011;19707;51.158;17.124;2022-11-20T04:40:47;115.62;;;52.73;;
33347;SDS011;19707;51.158;17.124;2022-11-20T04:43:56;120.80;;;53.52;;
33347;SDS011;19707;51.158;17.124;2022-11-20T04:47:05;130.87;;;58.28;;
33347;SDS011;19707;51.158;17.124;2022-11-20T04:50:18;152.22;;;64.05;;
33347;SDS011;19707;51.158;17.124;2022-11-20T04:53:34;217.18;;;82.22;;
33347;SDS011;19707;51.158;17.124;2022-11-20T04:56:40;233.72;;;89.17;;
33347;SDS011;19707;51.158;17.124;2022-11-20T04:59:41;221.43;;;85.97;;
33347;SDS011;19707;51.158;17.124;2022-11-20T05:02:42;212.32;;;84.35;;
33347;SDS011;19707;51.158;17.124;2022-11-20T05:05:44;171.32;;;71.72;;
33347;SDS011;19707;51.158;17.124;2022-11-20T05:08:46;119.65;;;54.30;;
33347;SDS011;19707;51.158;17.124;2022-11-20T05:11:48;112.17;;;50.25;;
33347;SDS011;19707;51.158;17.124;2022-11-20T05:14:50;116.55;;;50.67;;
33347;SDS011;19707;51.158;17.124;2022-11-20T05:17:51;106.80;;;48.45;;
33347;SDS011;19707;51.158;17.124;2022-11-20T05:20:57;107.30;;;47.98;;
33347;SDS011;19707;51.158;17.124;2022-11-20T05:23:59;99.40;;;46.98;;
33347;SDS011;19707;51.158;17.124;2022-11-20T05:27:01;99.83;;;45.98;;
33347;SDS011;19707;51.158;17.124;2022-11-20T05:30:06;112.15;;;49.63;;
33347;SDS011;19707;51.158;17.124;2022-11-20T05:33:09;108.10;;;51.88;;
33347;SDS011;19707;51.158;17.124;2022-11-20T05:36:12;113.65;;;51.45;;
33347;SDS011;19707;51.158;17.124;2022-11-20T05:39:14;101.85;;;47.83;;
33347;SDS011;19707;51.158;17.124;2022-11-20T05:42:16;104.70;;;46.30;;
33347;SDS011;19707;51.158;17.124;2022-11-20T05:45:33;106.10;;;47.35;;
33347;SDS011;19707;51.158;17.124;2022-11-20T05:48:35;98.70;;;45.48;;
33347;SDS011;19707;51.158;17.124;2022-11-20T05:51:37;97.53;;;43.80;;
33347;SDS011;19707;51.158;17.124;2022-11-20T05:54:38;92.15;;;44.45;;
33347;SDS011;19707;51.158;17.124;2022-11-20T05:57:40;100.75;;;45.40;;
33347;SDS011;19707;51.158;17.124;2022-11-20T06:00:42;103.78;;;45.80;;
33347;SDS011;19707;51.158;17.124;2022-11-20T06:03:44;103.22;;;47.27;;
33347;SDS011;19707;51.158;17.124;2022-11-20T06:06:47;111.33;;;47.73;;
33347;SDS011;19707;51.158;17.124;2022-11-20T06:09:49;105.95;;;48.58;;
33347;SDS011;19707;51.158;17.124;2022-11-20T06:12:51;99.35;;;45.40;;
33347;SDS011;19707;51.158;17.124;2022-11-20T06:15:52;114.97;;;47.40;;
33347;SDS011;19707;51.158;17.124;2022-11-20T06:18:54;111.60;;;48.08;;
33347;SDS011;19707;51.158;17.124;2022-11-20T06:21:56;108.95;;;47.95;;
33347;SDS011;19707;51.158;17.124;2022-11-20T06:24:58;103.10;;;47.75;;
33347;SDS011;19707;51.158;17.124;2022-11-20T06:28:00;113.70;;;50.48;;
33347;SDS011;19707;51.158;17.124;2022-11-20T06:31:02;109.97;;;47.83;;
33347;SDS011;19707;51.158;17.124;2022-11-20T06:34:04;103.92;;;45.67;;
33347;SDS011;19707;51.158;17.124;2022-11-20T06:37:09;113.92;;;50.28;;
33347;SDS011;19707;51.158;17.124;2022-11-20T06:40:11;107.43;;;47.00;;
33347;SDS011;19707;51.158;17.124;2022-11-20T06:43:13;110.30;;;47.05;;
33347;SDS011;19707;51.158;17.124;2022-11-20T06:46:15;128.18;;;53.13;;
33347;SDS011;19707;51.158;17.124;2022-11-20T06:49:19;131.30;;;56.40;;
33347;SDS011;19707;51.158;17.124;2022-11-20T06:52:20;144.22;;;60.75;;
33347;SDS011;19707;51.158;17.124;2022-11-20T06:55:22;155.85;;;63.87;;
33347;SDS011;19707;51.158;17.124;2022-11-20T06:58:25;146.18;;;61.37;;
33347;SDS011;19707;51.158;17.124;2022-11-20T07:01:28;136.50;;;56.20;;
33347;SDS011;19707;51.158;17.124;2022-11-20T07:04:31;132.78;;;57.62;;
33347;SDS011;19707;51.158;17.124;2022-11-20T07:07:33;121.55;;;54.85;;
33347;SDS011;19707;51.158;17.124;2022-11-20T07:10:34;111.95;;;49.90;;
33347;SDS011;19707;51.158;17.124;2022-11-20T07:13:36;117.53;;;49.73;;
33347;SDS011;19707;51.158;17.124;2022-11-20T07:16:38;106.30;;;46.35;;
33347;SDS011;19707;51.158;17.124;2022-11-20T07:19:40;104.38;;;46.15;;
33347;SDS011;19707;51.158;17.124;2022-11-20T07:22:43;111.20;;;50.03;;
33347;SDS011;19707;51.158;17.124;2022-11-20T07:25:44;102.80;;;50.12;;
33347;SDS011;19707;51.158;17.124;2022-11-20T07:28:46;110.10;;;49.98;;
33347;SDS011;19707;51.158;17.124;2022-11-20T07:31:48;106.78;;;48.10;;
33347;SDS011;19707;51.158;17.124;2022-11-20T07:34:51;99.17;;;45.88;;
33347;SDS011;19707;51.158;17.124;2022-11-20T07:37:52;104.38;;;46.60;;
33347;SDS011;19707;51.158;17.124;2022-11-20T07:40:54;119.10;;;51.53;;
33347;SDS011;19707;51.158;17.124;2022-11-20T07:43:58;115.97;;;51.50;;
33347;SDS011;19707;51.158;17.124;2022-11-20T07:47:00;100.12;;;49.38;;
33347;SDS011;19707;51.158;17.124;2022-11-20T07:50:02;109.45;;;47.95;;
33347;SDS011;19707;51.158;17.124;2022-11-20T07:53:05;105.40;;;48.13;;
33347;SDS011;19707;51.158;17.124;2022-11-20T07:56:07;104.83;;;44.93;;
33347;SDS011;19707;51.158;17.124;2022-11-20T07:59:08;98.85;;;43.55;;
33347;SDS011;19707;51.158;17.124;2022-11-20T08:02:12;91.87;;;43.33;;
33347;SDS011;19707;51.158;17.124;2022-11-20T08:05:13;89.72;;;41.88;;
33347;SDS011;19707;51.158;17.124;2022-11-20T08:08:15;84.42;;;42.23;;
33347;SDS011;19707;51.158;17.124;2022-11-20T08:11:17;84.42;;;40.80;;
33347;SDS011;19707;51.158;17.124;2022-11-20T08:14:37;89.13;;;41.60;;
33347;SDS011;19707;51.158;17.124;2022-11-20T08:17:38;85.07;;;40.90;;
33347;SDS011;19707;51.158;17.124;2022-11-20T08:20:40;86.15;;;40.35;;
33347;SDS011;19707;51.158;17.124;2022-11-20T08:23:42;82.67;;;40.17;;
33347;SDS011;19707;51.158;17.124;2022-11-20T08:26:43;82.50;;;41.40;;
33347;SDS011;19707;51.158;17.124;2022-11-20T08:29:45;80.55;;;38.80;;
33347;SDS011;19707;51.158;17.124;2022-11-20T08:32:47;78.02;;;37.50;;
33347;SDS011;19707;51.158;17.124;2022-11-20T08:35:48;76.92;;;38.35;;
33347;SDS011;19707;51.158;17.124;2022-11-20T08:38:51;74.82;;;36.38;;
33347;SDS011;19707;51.158;17.124;2022-11-20T08:41:55;75.17;;;36.75;;
33347;SDS011;19707;51.158;17.124;2022-11-20T08:44:56;75.50;;;36.28;;
33347;SDS011;19707;51.158;17.124;2022-11-20T08:48:01;76.05;;;37.45;;
33347;SDS011;19707;51.158;17.124;2022-11-20T08:51:04;67.05;;;36.40;;
33347;SDS011;19707;51.158;17.124;2022-11-20T08:54:06;75.45;;;38.48;;
33347;SDS011;19707;51.158;17.124;2022-11-20T08:57:08;79.22;;;36.23;;
33347;SDS011;19707;51.158;17.124;2022-11-20T09:00:10;66.65;;;34.55;;
33347;SDS011;19707;51.158;17.124;2022-11-20T09:03:13;67.90;;;35.63;;
33347;SDS011;19707;51.158;17.124;2022-11-20T09:06:14;100.18;;;47.98;;
33347;SDS011;19707;51.158;17.124;2022-11-20T09:09:17;68.75;;;36.50;;
33347;SDS011;19707;51.158;17.124;2022-11-20T09:12:21;73.72;;;35.35;;
33347;SDS011;19707;51.158;17.124;2022-11-20T09:15:23;66.00;;;33.33;;
33347;SDS011;19707;51.158;17.124;2022-11-20T09:18:26;70.50;;;34.08;;
33347;SDS011;19707;51.158;17.124;2022-11-20T09:21:29;58.17;;;32.73;;
33347;SDS011;19707;51.158;17.124;2022-11-20T09:24:30;65.75;;;32.70;;
33347;SDS011;19707;51.158;17.124;2022-11-20T09:27:32;73.20;;;35.95;;
33347;SDS011;19707;51.158;17.124;2022-11-20T09:30:34;73.12;;;35.35;;
33347;SDS011;19707;51.158;17.124;2022-11-20T09:33:36;70.80;;;35.95;;
33347;SDS011;19707;51.158;17.124;2022-11-20T09:36:38;68.52;;;33.65;;
33347;SDS011;19707;51.158;17.124;2022-11-20T09:39:39;71.07;;;34.83;;
33347;SDS011;19707;51.158;17.124;2022-11-20T09:53:13;66.72;;;34.27;;
33347;SDS011;19707;51.158;17.124;2022-11-20T09:56:25;52.08;;;28.87;;
33347;SDS011;19707;51.158;17.124;2022-11-20T09:59:41;55.85;;;29.65;;
33347;SDS011;19707;51.158;17.124;2022-11-20T10:02:49;53.23;;;28.07;;
33347;SDS011;19707;51.158;17.124;2022-11-20T10:06:08;54.35;;;29.77;;
33347;SDS011;19707;51.158;17.124;2022-11-20T10:09:29;55.58;;;30.43;;
33347;SDS011;19707;51.158;17.124;2022-11-20T10:16:15;67.85;;;34.98;;
33347;SDS011;19707;51.158;17.124;2022-11-20T10:23:00;54.95;;;29.92;;
33347;SDS011;19707;51.158;17.124;2022-11-20T10:26:22;45.35;;;26.40;;
33347;SDS011;19707;51.158;17.124;2022-11-20T10:29:39;49.03;;;25.68;;
33347;SDS011;19707;51.158;17.124;2022-11-20T10:32:48;49.38;;;26.73;;
33347;SDS011;19707;51.158;17.124;2022-11-20T10:36:19;47.13;;;25.10;;
33347;SDS011;19707;51.158;17.124;2022-11-20T10:42:44;50.17;;;27.30;;
33347;SDS011;19707;51.158;17.124;2022-11-20T10:49:05;46.02;;;27.27;;
33347;SDS011;19707;51.158;17.124;2022-11-20T10:52:19;49.05;;;27.45;;
33347;SDS011;19707;51.158;17.124;2022-11-20T10:55:44;51.83;;;27.20;;
33347;SDS011;19707;51.158;17.124;2022-11-20T11:06:09;49.67;;;27.73;;
33347;SDS011;19707;51.158;17.124;2022-11-20T11:09:26;51.20;;;28.87;;
33347;SDS011;19707;51.158;17.124;2022-11-20T11:12:30;48.20;;;27.35;;
33347;SDS011;19707;51.158;17.124;2022-11-20T11:15:38;52.15;;;27.15;;
33347;SDS011;19707;51.158;17.124;2022-11-20T11:18:41;48.98;;;26.10;;
33347;SDS011;19707;51.158;17.124;2022-11-20T11:21:54;49.67;;;27.55;;
33347;SDS011;19707;51.158;17.124;2022-11-20T11:24:54;51.70;;;28.23;;
33347;SDS011;19707;51.158;17.124;2022-11-20T11:27:58;42.48;;;24.60;;
33347;SDS011;19707;51.158;17.124;2022-11-20T11:31:02;39.90;;;20.95;;
33347;SDS011;19707;51.158;17.124;2022-11-20T11:34:04;37.23;;;21.57;;
33347;SDS011;19707;51.158;17.124;2022-11-20T11:37:17;41.30;;;23.10;;
33347;SDS011;19707;51.158;17.124;2022-11-20T11:40:22;30.75;;;18.62;;
33347;SDS011;19707;51.158;17.124;2022-11-20T11:43:24;37.55;;;20.08;;
33347;SDS011;19707;51.158;17.124;2022-11-20T11:46:52;35.00;;;20.52;;
33347;SDS011;19707;51.158;17.124;2022-11-20T11:50:08;36.68;;;20.75;;
33347;SDS011;19707;51.158;17.124;2022-11-20T11:53:17;40.95;;;23.70;;
33347;SDS011;19707;51.158;17.124;2022-11-20T11:56:20;43.83;;;23.57;;
33347;SDS011;19707;51.158;17.124;2022-11-20T11:59:33;44.18;;;24.52;;
33347;SDS011;19707;51.158;17.124;2022-11-20T12:06:18;44.38;;;24.90;;
33347;SDS011;19707;51.158;17.124;2022-11-20T12:09:16;41.55;;;23.67;;
33347;SDS011;19707;51.158;17.124;2022-11-20T12:12:31;39.03;;;22.17;;
33347;SDS011;19707;51.158;17.124;2022-11-20T12:15:44;40.73;;;23.32;;
33347;SDS011;19707;51.158;17.124;2022-11-20T12:18:51;38.95;;;21.45;;
33347;SDS011;19707;51.158;17.124;2022-11-20T12:25:28;45.73;;;23.85;;
33347;SDS011;19707;51.158;17.124;2022-11-20T12:35:57;37.93;;;21.42;;
33347;SDS011;19707;51.158;17.124;2022-11-20T12:39:15;41.00;;;21.95;;
33347;SDS011;19707;51.158;17.124;2022-11-20T12:46:53;42.25;;;21.45;;
33347;SDS011;19707;51.158;17.124;2022-11-20T12:49:44;39.65;;;21.20;;
33347;SDS011;19707;51.158;17.124;2022-11-20T13:00:10;39.13;;;21.33;;
33347;SDS011;19707;51.158;17.124;2022-11-20T13:06:44;34.63;;;20.60;;
33347;SDS011;19707;51.158;17.124;2022-11-20T13:09:46;40.48;;;23.73;;
33347;SDS011;19707;51.158;17.124;2022-11-20T13:12:56;35.25;;;20.97;;
33347;SDS011;19707;51.158;17.124;2022-11-20T13:19:11;31.70;;;18.75;;
33347;SDS011;19707;51.158;17.124;2022-11-20T13:22:23;33.87;;;20.23;;
33347;SDS011;19707;51.158;17.124;2022-11-20T13:25:38;36.58;;;21.12;;
33347;SDS011;19707;51.158;17.124;2022-11-20T13:28:42;31.65;;;18.65;;
33347;SDS011;19707;51.158;17.124;2022-11-20T13:31:44;31.80;;;19.10;;
33347;SDS011;19707;51.158;17.124;2022-11-20T13:34:51;31.37;;;20.00;;
33347;SDS011;19707;51.158;17.124;2022-11-20T13:38:15;37.88;;;22.05;;
33347;SDS011;19707;51.158;17.124;2022-11-20T13:41:27;42.23;;;24.30;;
33347;SDS011;19707;51.158;17.124;2022-11-20T13:44:39;43.90;;;22.87;;
33347;SDS011;19707;51.158;17.124;2022-11-20T14:01:52;27.95;;;16.37;;
33347;SDS011;19707;51.158;17.124;2022-11-20T14:04:56;30.85;;;17.20;;
33347;SDS011;19707;51.158;17.124;2022-11-20T14:07:58;29.60;;;16.40;;
33347;SDS011;19707;51.158;17.124;2022-11-20T14:11:04;39.40;;;19.30;;
33347;SDS011;19707;51.158;17.124;2022-11-20T14:14:22;30.68;;;16.17;;
33347;SDS011;19707;51.158;17.124;2022-11-20T14:20:34;28.23;;;15.93;;
33347;SDS011;19707;51.158;17.124;2022-11-20T14:23:35;29.85;;;16.17;;
33347;SDS011;19707;51.158;17.124;2022-11-20T14:26:37;32.55;;;18.25;;
33347;SDS011;19707;51.158;17.124;2022-11-20T14:29:45;45.80;;;25.97;;
33347;SDS011;19707;51.158;17.124;2022-11-20T14:32:49;46.18;;;23.10;;
33347;SDS011;19707;51.158;17.124;2022-11-20T14:35:53;52.98;;;29.32;;
33347;SDS011;19707;51.158;17.124;2022-11-20T14:38:57;44.42;;;24.95;;
33347;SDS011;19707;51.158;17.124;2022-11-20T14:41:59;49.08;;;25.60;;
33347;SDS011;19707;51.158;17.124;2022-11-20T14:45:04;44.23;;;25.40;;
33347;SDS011;19707;51.158;17.124;2022-11-20T14:48:12;53.15;;;27.65;;
33347;SDS011;19707;51.158;17.124;2022-11-20T14:51:23;62.80;;;33.33;;
33347;SDS011;19707;51.158;17.124;2022-11-20T14:54:49;65.12;;;31.07;;
33347;SDS011;19707;51.158;17.124;2022-11-20T14:57:54;56.35;;;32.15;;
33347;SDS011;19707;51.158;17.124;2022-11-20T15:01:07;61.70;;;32.25;;
33347;SDS011;19707;51.158;17.124;2022-11-20T15:04:11;61.75;;;31.35;;
33347;SDS011;19707;51.158;17.124;2022-11-20T15:07:23;55.17;;;29.30;;
33347;SDS011;19707;51.158;17.124;2022-11-20T15:10:38;51.70;;;26.95;;
33347;SDS011;19707;51.158;17.124;2022-11-20T15:13:42;56.68;;;27.87;;
33347;SDS011;19707;51.158;17.124;2022-11-20T15:16:44;47.78;;;25.02;;
33347;SDS011;19707;51.158;17.124;2022-11-20T15:19:45;45.65;;;20.60;;
33347;SDS011;19707;51.158;17.124;2022-11-20T15:22:47;40.40;;;21.10;;
33347;SDS011;19707;51.158;17.124;2022-11-20T15:25:48;43.92;;;22.07;;
33347;SDS011;19707;51.158;17.124;2022-11-20T15:28:50;39.65;;;19.95;;
33347;SDS011;19707;51.158;17.124;2022-11-20T15:31:52;38.17;;;19.50;;
33347;SDS011;19707;51.158;17.124;2022-11-20T15:34:55;39.35;;;21.05;;
33347;SDS011;19707;51.158;17.124;2022-11-20T15:37:56;42.85;;;20.00;;
33347;SDS011;19707;51.158;17.124;2022-11-20T15:40:58;38.00;;;20.68;;
33347;SDS011;19707;51.158;17.124;2022-11-20T15:44:00;47.00;;;21.87;;
33347;SDS011;19707;51.158;17.124;2022-11-20T15:47:01;53.92;;;23.42;;
33347;SDS011;19707;51.158;17.124;2022-11-20T15:50:03;51.77;;;22.98;;
33347;SDS011;19707;51.158;17.124;2022-11-20T15:53:09;48.87;;;23.40;;
33347;SDS011;19707;51.158;17.124;2022-11-20T15:56:11;42.40;;;21.15;;
33347;SDS011;19707;51.158;17.124;2022-11-20T15:59:13;46.73;;;23.15;;
33347;SDS011;19707;51.158;17.124;2022-11-20T16:02:15;59.13;;;28.90;;
33347;SDS011;19707;51.158;17.124;2022-11-20T16:05:17;55.92;;;26.68;;
33347;SDS011;19707;51.158;17.124;2022-11-20T16:08:19;61.98;;;27.55;;
33347;SDS011;19707;51.158;17.124;2022-11-20T16:11:21;56.60;;;27.55;;
33347;SDS011;19707;51.158;17.124;2022-11-20T16:14:22;77.10;;;35.83;;
33347;SDS011;19707;51.158;17.124;2022-11-20T16:17:42;167.75;;;77.15;;
33347;SDS011;19707;51.158;17.124;2022-11-20T16:20:51;135.30;;;65.25;;
33347;SDS011;19707;51.158;17.124;2022-11-20T16:23:54;179.87;;;82.55;;
33347;SDS011;19707;51.158;17.124;2022-11-20T16:26:55;155.72;;;76.62;;
33347;SDS011;19707;51.158;17.124;2022-11-20T16:29:57;107.27;;;52.65;;
33347;SDS011;19707;51.158;17.124;2022-11-20T16:32:59;120.05;;;58.83;;
33347;SDS011;19707;51.158;17.124;2022-11-20T16:39:13;94.72;;;45.03;;
33347;SDS011;19707;51.158;17.124;2022-11-20T16:42:15;90.17;;;43.08;;
33347;SDS011;19707;51.158;17.124;2022-11-20T16:45:17;84.97;;;43.98;;
33347;SDS011;19707;51.158;17.124;2022-11-20T16:48:19;96.28;;;45.80;;
33347;SDS011;19707;51.158;17.124;2022-11-20T16:51:20;108.05;;;51.95;;
33347;SDS011;19707;51.158;17.124;2022-11-20T16:54:23;104.95;;;53.87;;
33347;SDS011;19707;51.158;17.124;2022-11-20T16:57:28;106.43;;;51.88;;
33347;SDS011;19707;51.158;17.124;2022-11-20T17:00:34;109.87;;;54.85;;
33347;SDS011;19707;51.158;17.124;2022-11-20T17:03:38;147.78;;;70.87;;
33347;SDS011;19707;51.158;17.124;2022-11-20T17:06:41;136.40;;;65.80;;
33347;SDS011;19707;51.158;17.124;2022-11-20T17:09:44;122.70;;;58.17;;
33347;SDS011;19707;51.158;17.124;2022-11-20T17:12:45;110.88;;;55.03;;
33347;SDS011;19707;51.158;17.124;2022-11-20T17:15:47;118.17;;;55.95;;
33347;SDS011;19707;51.158;17.124;2022-11-20T17:18:49;128.65;;;59.45;;
33347;SDS011;19707;51.158;17.124;2022-11-20T17:21:51;126.10;;;59.45;;
33347;SDS011;19707;51.158;17.124;2022-11-20T17:24:52;131.37;;;59.77;;
33347;SDS011;19707;51.158;17.124;2022-11-20T17:27:54;125.20;;;57.58;;
33347;SDS011;19707;51.158;17.124;2022-11-20T17:31:04;126.38;;;56.60;;
33347;SDS011;19707;51.158;17.124;2022-11-20T17:34:05;107.90;;;52.20;;
33347;SDS011;19707;51.158;17.124;2022-11-20T17:37:08;113.50;;;53.13;;
33347;SDS011;19707;51.158;17.124;2022-11-20T17:40:09;107.63;;;52.23;;
33347;SDS011;19707;51.158;17.124;2022-11-20T17:43:11;88.85;;;43.38;;
33347;SDS011;19707;51.158;17.124;2022-11-20T17:46:17;94.35;;;44.15;;
33347;SDS011;19707;51.158;17.124;2022-11-20T17:49:21;91.32;;;42.38;;
33347;SDS011;19707;51.158;17.124;2022-11-20T17:52:22;98.82;;;46.55;;
33347;SDS011;19707;51.158;17.124;2022-11-20T17:55:24;100.60;;;46.05;;
33347;SDS011;19707;51.158;17.124;2022-11-20T17:58:26;104.75;;;52.88;;
33347;SDS011;19707;51.158;17.124;2022-11-20T18:01:28;108.37;;;52.20;;
33347;SDS011;19707;51.158;17.124;2022-11-20T18:04:30;97.95;;;48.78;;
33347;SDS011;19707;51.158;17.124;2022-11-20T18:07:31;93.58;;;45.10;;
33347;SDS011;19707;51.158;17.124;2022-11-20T18:10:33;87.70;;;43.30;;
33347;SDS011;19707;51.158;17.124;2022-11-20T18:13:35;78.65;;;39.00;;
33347;SDS011;19707;51.158;17.124;2022-11-20T18:16:56;81.37;;;38.98;;
33347;SDS011;19707;51.158;17.124;2022-11-20T18:20:01;77.65;;;37.38;;
33347;SDS011;19707;51.158;17.124;2022-11-20T18:23:03;83.15;;;40.20;;
33347;SDS011;19707;51.158;17.124;2022-11-20T18:26:05;85.35;;;39.50;;
33347;SDS011;19707;51.158;17.124;2022-11-20T18:29:07;82.00;;;39.83;;
33347;SDS011;19707;51.158;17.124;2022-11-20T18:32:08;97.45;;;46.20;;
33347;SDS011;19707;51.158;17.124;2022-11-20T18:35:10;84.83;;;43.25;;
33347;SDS011;19707;51.158;17.124;2022-11-20T18:38:12;84.60;;;42.67;;
33347;SDS011;19707;51.158;17.124;2022-11-20T18:41:15;87.82;;;43.45;;
33347;SDS011;19707;51.158;17.124;2022-11-20T18:44:37;84.22;;;40.43;;
33347;SDS011;19707;51.158;17.124;2022-11-20T18:47:51;81.53;;;39.70;;
33347;SDS011;19707;51.158;17.124;2022-11-20T18:50:52;81.92;;;39.55;;
33347;SDS011;19707;51.158;17.124;2022-11-20T18:53:54;103.05;;;52.25;;
33347;SDS011;19707;51.158;17.124;2022-11-20T18:56:57;101.27;;;44.67;;
33347;SDS011;19707;51.158;17.124;2022-11-20T18:59:59;102.72;;;44.95;;
33347;SDS011;19707;51.158;17.124;2022-11-20T19:03:01;99.37;;;43.80;;
33347;SDS011;19707;51.158;17.124;2022-11-20T19:06:03;85.22;;;41.28;;
33347;SDS011;19707;51.158;17.124;2022-11-20T19:09:06;92.35;;;40.88;;
33347;SDS011;19707;51.158;17.124;2022-11-20T19:15:13;81.17;;;39.80;;